sensor_id;sensor_type;location;lat;lon;timestamp;temperature;humidity
8643;DHT22;4359;49.358;11.256;2024-01-15T00:00:01;-4.40;99.90
8643;DHT22;4359;49.358;11.256;2024-01-15T00:02:26;-4.40;99.90
8643;DHT22;4359;49.358;11.256;2024-01-15T00:04:52;-4.40;99.90
8643;DHT22;4359;49.358;11.256;2024-01-15T00:07:17;-4.40;99.90
8643;DHT22;4359;49.358;11.256;2024-01-15T00:09:43;-4.50;99.90
8643;DHT22;4359;49.358;11.256;2024-01-15T00:12:09;-4.50;99.90
8643;DHT22;4359;49.358;11.256;2024-01-15T00:14:34;-4.50;99.90
8643;DHT22;4359;49.358;11.256;2024-01-15T00:17:00;-4.50;99.90
8643;DHT22;4359;49.358;11.256;2024-01-15T00:19:25;-4.50;99.90
8643;DHT22;4359;49.358;11.256;2024-01-15T00:21:52;-4.50;99.90
8643;DHT22;4359;49.358;11.256;2024-01-15T00:24:18;-4.50;99.90
8643;DHT22;4359;49.358;11.256;2024-01-15T00:26:43;-4.50;99.90
8643;DHT22;4359;49.358;11.256;2024-01-15T00:29:09;-4.50;99.90
8643;DHT22;4359;49.358;11.256;2024-01-15T00:31:35;-4.40;99.90
8643;DHT22;4359;49.358;11.256;2024-01-15T00:34:01;-4.50;99.90
8643;DHT22;4359;49.358;11.256;2024-01-15T00:36:27;-4.50;99.90
8643;DHT22;4359;49.358;11.256;2024-01-15T00:38:53;-4.50;99.90
8643;DHT22;4359;49.358;11.256;2024-01-15T00:41:19;-4.50;99.90
8643;DHT22;4359;49.358;11.256;2024-01-15T00:43:45;-4.50;99.90
8643;DHT22;4359;49.358;11.256;2024-01-15T00:46:11;-4.40;99.90
8643;DHT22;4359;49.358;11.256;2024-01-15T00:48:37;-4.40;99.90
8643;DHT22;4359;49.358;11.256;2024-01-15T00:51:06;-4.40;99.90
8643;DHT22;4359;49.358;11.256;2024-01-15T00:53:32;-4.40;99.90
8643;DHT22;4359;49.358;11.256;2024-01-15T00:55:57;-4.40;99.90
8643;DHT22;4359;49.358;11.256;2024-01-15T00:58:23;-4.30;99.90
8643;DHT22;4359;49.358;11.256;2024-01-15T01:00:49;-4.40;99.90
8643;DHT22;4359;49.358;11.256;2024-01-15T01:03:14;-4.50;99.90
8643;DHT22;4359;49.358;11.256;2024-01-15T01:05:40;-4.40;99.90
8643;DHT22;4359;49.358;11.256;2024-01-15T01:08:05;-4.40;99.90
8643;DHT22;4359;49.358;11.256;2024-01-15T01:10:31;-4.40;99.90
8643;DHT22;4359;49.358;11.256;2024-01-15T01:12:57;-4.40;99.90
8643;DHT22;4359;49.358;11.256;2024-01-15T01:15:22;-4.40;99.90
8643;DHT22;4359;49.358;11.256;2024-01-15T01:17:49;-4.40;99.90
8643;DHT22;4359;49.358;11.256;2024-01-15T01:20:15;-4.40;99.90
8643;DHT22;4359;49.358;11.256;2024-01-15T01:22:41;-4.30;99.90
8643;DHT22;4359;49.358;11.256;2024-01-15T01:25:07;-4.40;99.90
8643;DHT22;4359;49.358;11.256;2024-01-15T01:27:33;-4.40;99.90
8643;DHT22;4359;49.358;11.256;2024-01-15T01:29:58;-4.30;99.90
8643;DHT22;4359;49.358;11.256;2024-01-15T01:32:24;-4.30;99.90
8643;DHT22;4359;49.358;11.256;2024-01-15T01:34:50;-4.30;99.90
8643;DHT22;4359;49.358;11.256;2024-01-15T01:37:15;-4.30;99.90
8643;DHT22;4359;49.358;11.256;2024-01-15T01:39:42;-4.30;99.90
8643;DHT22;4359;49.358;11.256;2024-01-15T01:42:08;-4.20;99.90
8643;DHT22;4359;49.358;11.256;2024-01-15T01:44:33;-4.10;99.90
8643;DHT22;4359;49.358;11.256;2024-01-15T01:47:00;-4.10;99.90
8643;DHT22;4359;49.358;11.256;2024-01-15T01:49:27;-4.10;99.90
8643;DHT22;4359;49.358;11.256;2024-01-15T01:52:00;-4.10;99.90
8643;DHT22;4359;49.358;11.256;2024-01-15T01:54:28;-4.00;99.90
8643;DHT22;4359;49.358;11.256;2024-01-15T01:56:54;-4.00;99.90
8643;DHT22;4359;49.358;11.256;2024-01-15T01:59:21;-3.90;99.90
8643;DHT22;4359;49.358;11.256;2024-01-15T02:01:49;-4.00;99.90
8643;DHT22;4359;49.358;11.256;2024-01-15T02:04:15;-3.90;99.90
8643;DHT22;4359;49.358;11.256;2024-01-15T02:06:41;-3.90;99.90
8643;DHT22;4359;49.358;11.256;2024-01-15T02:09:07;-3.90;99.90
8643;DHT22;4359;49.358;11.256;2024-01-15T02:11:33;-3.80;99.90
8643;DHT22;4359;49.358;11.256;2024-01-15T02:13:59;-3.80;99.90
8643;DHT22;4359;49.358;11.256;2024-01-15T02:16:24;-3.80;99.90
8643;DHT22;4359;49.358;11.256;2024-01-15T02:18:50;-3.80;99.90
8643;DHT22;4359;49.358;11.256;2024-01-15T02:21:16;-3.80;99.90
8643;DHT22;4359;49.358;11.256;2024-01-15T02:23:41;-3.70;99.90
8643;DHT22;4359;49.358;11.256;2024-01-15T02:26:08;-3.70;99.90
8643;DHT22;4359;49.358;11.256;2024-01-15T02:28:34;-3.80;99.90
8643;DHT22;4359;49.358;11.256;2024-01-15T02:31:00;-3.80;99.90
8643;DHT22;4359;49.358;11.256;2024-01-15T02:33:26;-3.80;99.90
8643;DHT22;4359;49.358;11.256;2024-01-15T02:35:51;-3.70;99.90
8643;DHT22;4359;49.358;11.256;2024-01-15T02:38:17;-3.60;99.90
8643;DHT22;4359;49.358;11.256;2024-01-15T02:40:44;-3.60;99.90
8643;DHT22;4359;49.358;11.256;2024-01-15T02:43:10;-3.60;99.90
8643;DHT22;4359;49.358;11.256;2024-01-15T02:45:36;-3.60;99.90
8643;DHT22;4359;49.358;11.256;2024-01-15T02:48:01;-3.50;99.90
8643;DHT22;4359;49.358;11.256;2024-01-15T02:50:27;-3.50;99.90
8643;DHT22;4359;49.358;11.256;2024-01-15T02:52:53;-3.50;99.90
8643;DHT22;4359;49.358;11.256;2024-01-15T02:55:18;-3.50;99.90
8643;DHT22;4359;49.358;11.256;2024-01-15T02:57:44;-3.40;99.90
8643;DHT22;4359;49.358;11.256;2024-01-15T03:00:10;-3.40;99.90
8643;DHT22;4359;49.358;11.256;2024-01-15T03:02:37;-3.40;99.90
8643;DHT22;4359;49.358;11.256;2024-01-15T03:05:06;-3.30;99.90
8643;DHT22;4359;49.358;11.256;2024-01-15T03:07:33;-3.30;99.90
8643;DHT22;4359;49.358;11.256;2024-01-15T03:09:59;-3.20;99.90
8643;DHT22;4359;49.358;11.256;2024-01-15T03:12:25;-3.20;99.90
8643;DHT22;4359;49.358;11.256;2024-01-15T03:14:50;-3.10;99.90
8643;DHT22;4359;49.358;11.256;2024-01-15T03:17:16;-3.10;99.90
8643;DHT22;4359;49.358;11.256;2024-01-15T03:19:41;-3.10;99.90
8643;DHT22;4359;49.358;11.256;2024-01-15T03:22:07;-3.10;99.90
8643;DHT22;4359;49.358;11.256;2024-01-15T03:24:34;-3.10;99.90
8643;DHT22;4359;49.358;11.256;2024-01-15T03:27:00;-3.10;99.90
8643;DHT22;4359;49.358;11.256;2024-01-15T03:29:26;-3.20;99.90
8643;DHT22;4359;49.358;11.256;2024-01-15T03:31:52;-3.10;99.90
8643;DHT22;4359;49.358;11.256;2024-01-15T03:34:18;-3.10;99.90
8643;DHT22;4359;49.358;11.256;2024-01-15T03:36:44;-3.20;99.90
8643;DHT22;4359;49.358;11.256;2024-01-15T03:39:09;-3.10;99.90
8643;DHT22;4359;49.358;11.256;2024-01-15T03:41:35;-3.20;99.90
8643;DHT22;4359;49.358;11.256;2024-01-15T03:44:01;-3.20;99.90
8643;DHT22;4359;49.358;11.256;2024-01-15T03:46:27;-3.10;99.90
8643;DHT22;4359;49.358;11.256;2024-01-15T03:48:52;-3.10;99.90
8643;DHT22;4359;49.358;11.256;2024-01-15T03:51:18;-3.10;99.90
8643;DHT22;4359;49.358;11.256;2024-01-15T03:53:44;-3.10;99.90
8643;DHT22;4359;49.358;11.256;2024-01-15T03:56:10;-3.10;99.90
8643;DHT22;4359;49.358;11.256;2024-01-15T03:58:35;-3.10;99.90
8643;DHT22;4359;49.358;11.256;2024-01-15T04:01:01;-3.10;99.90
8643;DHT22;4359;49.358;11.256;2024-01-15T04:03:27;-3.10;99.90
8643;DHT22;4359;49.358;11.256;2024-01-15T04:05:52;-3.00;99.90
8643;DHT22;4359;49.358;11.256;2024-01-15T04:08:18;-3.00;99.90
8643;DHT22;4359;49.358;11.256;2024-01-15T04:10:43;-3.00;99.90
8643;DHT22;4359;49.358;11.256;2024-01-15T04:13:09;-2.90;99.90
8643;DHT22;4359;49.358;11.256;2024-01-15T04:15:34;-2.90;99.90
8643;DHT22;4359;49.358;11.256;2024-01-15T04:18:02;-2.90;99.90
8643;DHT22;4359;49.358;11.256;2024-01-15T04:20:28;-2.90;99.90
8643;DHT22;4359;49.358;11.256;2024-01-15T04:22:54;-2.90;99.90
8643;DHT22;4359;49.358;11.256;2024-01-15T04:25:19;-2.80;99.90
8643;DHT22;4359;49.358;11.256;2024-01-15T04:27:45;-2.90;99.90
8643;DHT22;4359;49.358;11.256;2024-01-15T04:30:11;-2.90;99.90
8643;DHT22;4359;49.358;11.256;2024-01-15T04:32:36;-2.90;99.90
8643;DHT22;4359;49.358;11.256;2024-01-15T04:35:02;-2.90;99.90
8643;DHT22;4359;49.358;11.256;2024-01-15T04:37:28;-2.80;99.90
8643;DHT22;4359;49.358;11.256;2024-01-15T04:39:53;-2.80;99.90
8643;DHT22;4359;49.358;11.256;2024-01-15T04:42:21;-2.80;99.90
8643;DHT22;4359;49.358;11.256;2024-01-15T04:44:47;-2.80;99.90
8643;DHT22;4359;49.358;11.256;2024-01-15T04:47:12;-2.80;99.90
8643;DHT22;4359;49.358;11.256;2024-01-15T04:49:38;-2.70;99.90
8643;DHT22;4359;49.358;11.256;2024-01-15T04:52:03;-2.70;99.90
8643;DHT22;4359;49.358;11.256;2024-01-15T04:54:29;-2.70;99.90
8643;DHT22;4359;49.358;11.256;2024-01-15T04:56:55;-2.70;99.90
8643;DHT22;4359;49.358;11.256;2024-01-15T04:59:20;-2.70;99.90
8643;DHT22;4359;49.358;11.256;2024-01-15T05:01:46;-2.70;99.90
8643;DHT22;4359;49.358;11.256;2024-01-15T05:04:12;-2.70;99.90
8643;DHT22;4359;49.358;11.256;2024-01-15T05:06:38;-2.70;99.90
8643;DHT22;4359;49.358;11.256;2024-01-15T05:09:03;-2.70;99.90
8643;DHT22;4359;49.358;11.256;2024-01-15T05:11:29;-2.70;99.90
8643;DHT22;4359;49.358;11.256;2024-01-15T05:13:55;-2.70;99.90
8643;DHT22;4359;49.358;11.256;2024-01-15T05:16:21;-2.70;99.90
8643;DHT22;4359;49.358;11.256;2024-01-15T05:18:46;-2.60;99.90
8643;DHT22;4359;49.358;11.256;2024-01-15T05:21:12;-2.60;99.90
8643;DHT22;4359;49.358;11.256;2024-01-15T05:23:37;-2.70;99.90
8643;DHT22;4359;49.358;11.256;2024-01-15T05:26:03;-2.60;99.90
8643;DHT22;4359;49.358;11.256;2024-01-15T05:28:29;-2.60;99.90
8643;DHT22;4359;49.358;11.256;2024-01-15T05:30:55;-2.60;99.90
8643;DHT22;4359;49.358;11.256;2024-01-15T05:33:21;-2.60;99.90
8643;DHT22;4359;49.358;11.256;2024-01-15T05:35:47;-2.50;99.90
8643;DHT22;4359;49.358;11.256;2024-01-15T05:38:14;-2.50;99.90
8643;DHT22;4359;49.358;11.256;2024-01-15T05:40:40;-2.40;99.90
8643;DHT22;4359;49.358;11.256;2024-01-15T05:43:05;-2.40;99.90
8643;DHT22;4359;49.358;11.256;2024-01-15T05:45:31;-2.40;99.90
8643;DHT22;4359;49.358;11.256;2024-01-15T05:47:56;-2.30;99.90
8643;DHT22;4359;49.358;11.256;2024-01-15T05:50:22;-2.30;99.90
8643;DHT22;4359;49.358;11.256;2024-01-15T05:52:48;-2.40;99.90
8643;DHT22;4359;49.358;11.256;2024-01-15T05:55:14;-2.40;99.90
8643;DHT22;4359;49.358;11.256;2024-01-15T05:57:39;-2.40;99.90
8643;DHT22;4359;49.358;11.256;2024-01-15T06:00:05;-2.30;99.90
8643;DHT22;4359;49.358;11.256;2024-01-15T06:02:31;-2.40;99.90
8643;DHT22;4359;49.358;11.256;2024-01-15T06:04:57;-2.30;99.90
8643;DHT22;4359;49.358;11.256;2024-01-15T06:07:23;-2.40;99.90
8643;DHT22;4359;49.358;11.256;2024-01-15T06:09:49;-2.30;99.90
8643;DHT22;4359;49.358;11.256;2024-01-15T06:12:14;-2.30;99.90
8643;DHT22;4359;49.358;11.256;2024-01-15T06:14:40;-2.30;99.90
8643;DHT22;4359;49.358;11.256;2024-01-15T06:17:07;-2.30;99.90
8643;DHT22;4359;49.358;11.256;2024-01-15T06:19:32;-2.30;99.90
8643;DHT22;4359;49.358;11.256;2024-01-15T06:21:58;-2.20;99.90
8643;DHT22;4359;49.358;11.256;2024-01-15T06:24:24;-2.20;99.90
8643;DHT22;4359;49.358;11.256;2024-01-15T06:26:49;-2.20;99.90
8643;DHT22;4359;49.358;11.256;2024-01-15T06:29:15;-2.10;99.90
8643;DHT22;4359;49.358;11.256;2024-01-15T06:31:40;-2.10;99.90
8643;DHT22;4359;49.358;11.256;2024-01-15T06:34:06;-2.00;99.90
8643;DHT22;4359;49.358;11.256;2024-01-15T06:36:31;-2.10;99.90
8643;DHT22;4359;49.358;11.256;2024-01-15T06:38:57;-2.10;99.90
8643;DHT22;4359;49.358;11.256;2024-01-15T06:41:23;-2.10;99.90
8643;DHT22;4359;49.358;11.256;2024-01-15T06:43:48;-2.10;99.90
8643;DHT22;4359;49.358;11.256;2024-01-15T06:46:20;-2.10;99.90
8643;DHT22;4359;49.358;11.256;2024-01-15T06:48:46;-2.10;99.90
8643;DHT22;4359;49.358;11.256;2024-01-15T06:51:12;-2.10;99.90
8643;DHT22;4359;49.358;11.256;2024-01-15T06:53:38;-2.10;99.90
8643;DHT22;4359;49.358;11.256;2024-01-15T06:56:04;-2.10;99.90
8643;DHT22;4359;49.358;11.256;2024-01-15T06:58:32;-2.10;99.90
8643;DHT22;4359;49.358;11.256;2024-01-15T07:00:58;-2.10;99.90
8643;DHT22;4359;49.358;11.256;2024-01-15T07:03:24;-2.10;99.90
8643;DHT22;4359;49.358;11.256;2024-01-15T07:05:50;-2.10;99.90
8643;DHT22;4359;49.358;11.256;2024-01-15T07:08:15;-2.10;99.90
8643;DHT22;4359;49.358;11.256;2024-01-15T07:10:41;-2.10;99.90
8643;DHT22;4359;49.358;11.256;2024-01-15T07:13:07;-2.10;99.90
8643;DHT22;4359;49.358;11.256;2024-01-15T07:15:32;-2.10;99.90
8643;DHT22;4359;49.358;11.256;2024-01-15T07:17:58;-2.10;99.90
8643;DHT22;4359;49.358;11.256;2024-01-15T07:20:23;-2.10;99.90
8643;DHT22;4359;49.358;11.256;2024-01-15T07:22:49;-2.00;99.90
8643;DHT22;4359;49.358;11.256;2024-01-15T07:25:15;-2.00;99.90
8643;DHT22;4359;49.358;11.256;2024-01-15T07:27:41;-2.00;99.90
8643;DHT22;4359;49.358;11.256;2024-01-15T07:30:11;-2.10;99.90
8643;DHT22;4359;49.358;11.256;2024-01-15T07:32:37;-2.00;99.90
8643;DHT22;4359;49.358;11.256;2024-01-15T07:35:03;-2.00;99.90
8643;DHT22;4359;49.358;11.256;2024-01-15T07:37:28;-2.00;99.90
8643;DHT22;4359;49.358;11.256;2024-01-15T07:39:54;-2.00;99.90
8643;DHT22;4359;49.358;11.256;2024-01-15T07:42:19;-1.90;99.90
8643;DHT22;4359;49.358;11.256;2024-01-15T07:44:45;-2.00;99.90
8643;DHT22;4359;49.358;11.256;2024-01-15T07:47:11;-2.00;99.90
8643;DHT22;4359;49.358;11.256;2024-01-15T07:49:37;-2.10;99.90
8643;DHT22;4359;49.358;11.256;2024-01-15T07:52:02;-2.10;99.90
8643;DHT22;4359;49.358;11.256;2024-01-15T07:54:30;-2.10;99.90
8643;DHT22;4359;49.358;11.256;2024-01-15T07:56:57;-2.10;99.90
8643;DHT22;4359;49.358;11.256;2024-01-15T07:59:23;-2.10;99.90
8643;DHT22;4359;49.358;11.256;2024-01-15T08:01:49;-2.10;99.90
8643;DHT22;4359;49.358;11.256;2024-01-15T08:04:15;-2.10;99.90
8643;DHT22;4359;49.358;11.256;2024-01-15T08:06:41;-2.10;99.90
8643;DHT22;4359;49.358;11.256;2024-01-15T08:09:06;-2.00;99.90
8643;DHT22;4359;49.358;11.256;2024-01-15T08:11:34;-2.00;99.90
8643;DHT22;4359;49.358;11.256;2024-01-15T08:14:01;-2.00;99.90
8643;DHT22;4359;49.358;11.256;2024-01-15T08:16:26;-1.90;99.90
8643;DHT22;4359;49.358;11.256;2024-01-15T08:18:52;-1.90;99.90
8643;DHT22;4359;49.358;11.256;2024-01-15T08:21:18;-1.80;99.90
8643;DHT22;4359;49.358;11.256;2024-01-15T08:23:44;-1.90;99.90
8643;DHT22;4359;49.358;11.256;2024-01-15T08:26:10;-1.90;99.90
8643;DHT22;4359;49.358;11.256;2024-01-15T08:28:36;-2.00;99.90
8643;DHT22;4359;49.358;11.256;2024-01-15T08:31:01;-1.90;99.90
8643;DHT22;4359;49.358;11.256;2024-01-15T08:33:28;-1.80;99.90
8643;DHT22;4359;49.358;11.256;2024-01-15T08:35:54;-1.80;99.90
8643;DHT22;4359;49.358;11.256;2024-01-15T08:38:20;-1.80;99.90
8643;DHT22;4359;49.358;11.256;2024-01-15T08:40:45;-1.70;99.90
8643;DHT22;4359;49.358;11.256;2024-01-15T08:43:11;-1.70;99.90
8643;DHT22;4359;49.358;11.256;2024-01-15T08:45:37;-1.70;99.90
8643;DHT22;4359;49.358;11.256;2024-01-15T08:48:02;-1.70;99.90
8643;DHT22;4359;49.358;11.256;2024-01-15T08:50:29;-1.60;99.90
8643;DHT22;4359;49.358;11.256;2024-01-15T08:52:55;-1.50;99.90
8643;DHT22;4359;49.358;11.256;2024-01-15T08:55:21;-1.50;99.90
8643;DHT22;4359;49.358;11.256;2024-01-15T08:57:48;-1.40;99.90
8643;DHT22;4359;49.358;11.256;2024-01-15T09:00:14;-1.40;99.90
8643;DHT22;4359;49.358;11.256;2024-01-15T09:02:40;-1.40;99.90
8643;DHT22;4359;49.358;11.256;2024-01-15T09:05:05;-1.30;99.90
8643;DHT22;4359;49.358;11.256;2024-01-15T09:07:32;-1.30;99.90
8643;DHT22;4359;49.358;11.256;2024-01-15T09:09:58;-1.30;99.90
8643;DHT22;4359;49.358;11.256;2024-01-15T09:12:25;-1.30;99.90
8643;DHT22;4359;49.358;11.256;2024-01-15T09:14:51;-1.30;99.90
8643;DHT22;4359;49.358;11.256;2024-01-15T09:17:19;-1.30;99.90
8643;DHT22;4359;49.358;11.256;2024-01-15T09:19:45;-1.20;99.90
8643;DHT22;4359;49.358;11.256;2024-01-15T09:22:12;-1.20;99.90
8643;DHT22;4359;49.358;11.256;2024-01-15T09:24:40;-1.30;99.90
8643;DHT22;4359;49.358;11.256;2024-01-15T09:27:06;-1.20;99.90
8643;DHT22;4359;49.358;11.256;2024-01-15T09:29:32;-1.20;99.90
8643;DHT22;4359;49.358;11.256;2024-01-15T09:31:57;-1.10;99.90
8643;DHT22;4359;49.358;11.256;2024-01-15T09:34:24;-1.20;99.90
8643;DHT22;4359;49.358;11.256;2024-01-15T09:36:49;-1.10;99.90
8643;DHT22;4359;49.358;11.256;2024-01-15T09:39:15;-1.00;99.90
8643;DHT22;4359;49.358;11.256;2024-01-15T09:41:41;-1.00;99.90
8643;DHT22;4359;49.358;11.256;2024-01-15T09:44:07;-1.00;99.90
8643;DHT22;4359;49.358;11.256;2024-01-15T09:46:34;-0.90;99.90
8643;DHT22;4359;49.358;11.256;2024-01-15T09:49:00;-0.90;99.90
8643;DHT22;4359;49.358;11.256;2024-01-15T09:51:30;-1.00;99.90
8643;DHT22;4359;49.358;11.256;2024-01-15T09:53:57;-0.90;99.90
8643;DHT22;4359;49.358;11.256;2024-01-15T09:56:23;-0.80;99.90
8643;DHT22;4359;49.358;11.256;2024-01-15T09:58:50;-0.80;99.90
8643;DHT22;4359;49.358;11.256;2024-01-15T10:01:20;-0.60;99.90
8643;DHT22;4359;49.358;11.256;2024-01-15T10:03:46;-0.50;99.90
8643;DHT22;4359;49.358;11.256;2024-01-15T10:06:15;-0.50;99.90
8643;DHT22;4359;49.358;11.256;2024-01-15T10:08:51;-0.30;99.90
8643;DHT22;4359;49.358;11.256;2024-01-15T10:11:17;-0.20;99.90
8643;DHT22;4359;49.358;11.256;2024-01-15T10:13:46;-0.10;99.90
8643;DHT22;4359;49.358;11.256;2024-01-15T10:16:12;0.00;99.90
8643;DHT22;4359;49.358;11.256;2024-01-15T10:18:38;-0.10;99.90
8643;DHT22;4359;49.358;11.256;2024-01-15T10:21:06;-0.10;99.90
8643;DHT22;4359;49.358;11.256;2024-01-15T10:23:32;0.00;99.90
8643;DHT22;4359;49.358;11.256;2024-01-15T10:25:58;0.20;99.90
8643;DHT22;4359;49.358;11.256;2024-01-15T10:28:26;0.00;99.90
8643;DHT22;4359;49.358;11.256;2024-01-15T10:30:55;-0.10;99.90
8643;DHT22;4359;49.358;11.256;2024-01-15T10:33:24;-0.30;99.90
8643;DHT22;4359;49.358;11.256;2024-01-15T10:35:57;-0.20;99.90
8643;DHT22;4359;49.358;11.256;2024-01-15T10:38:23;-0.30;99.90
8643;DHT22;4359;49.358;11.256;2024-01-15T10:40:56;-0.30;99.90
8643;DHT22;4359;49.358;11.256;2024-01-15T10:43:23;-0.50;99.90
8643;DHT22;4359;49.358;11.256;2024-01-15T10:45:50;-0.40;99.90
8643;DHT22;4359;49.358;11.256;2024-01-15T10:48:17;-0.40;99.90
8643;DHT22;4359;49.358;11.256;2024-01-15T10:50:47;-0.40;99.90
8643;DHT22;4359;49.358;11.256;2024-01-15T10:53:14;-0.30;99.90
8643;DHT22;4359;49.358;11.256;2024-01-15T10:55:42;-0.40;99.90
8643;DHT22;4359;49.358;11.256;2024-01-15T10:58:08;-0.50;99.90
8643;DHT22;4359;49.358;11.256;2024-01-15T11:00:35;-0.50;99.90
8643;DHT22;4359;49.358;11.256;2024-01-15T11:03:03;-0.50;99.90
8643;DHT22;4359;49.358;11.256;2024-01-15T11:05:36;-0.50;99.90
8643;DHT22;4359;49.358;11.256;2024-01-15T11:08:02;-0.40;99.90
8643;DHT22;4359;49.358;11.256;2024-01-15T11:10:47;-0.50;99.90
8643;DHT22;4359;49.358;11.256;2024-01-15T11:13:18;-0.60;99.90
8643;DHT22;4359;49.358;11.256;2024-01-15T11:16:07;-0.70;99.90
8643;DHT22;4359;49.358;11.256;2024-01-15T11:23:46;-0.60;99.90
8643;DHT22;4359;49.358;11.256;2024-01-15T11:29:08;-0.50;99.90
8643;DHT22;4359;49.358;11.256;2024-01-15T11:34:10;-0.50;99.90
8643;DHT22;4359;49.358;11.256;2024-01-15T11:42:01;-0.50;99.90
8643;DHT22;4359;49.358;11.256;2024-01-15T11:44:28;-0.40;99.90
8643;DHT22;4359;49.358;11.256;2024-01-15T11:47:11;-0.30;99.90
8643;DHT22;4359;49.358;11.256;2024-01-15T11:49:59;-0.30;99.90
8643;DHT22;4359;49.358;11.256;2024-01-15T11:52:26;-0.20;99.90
8643;DHT22;4359;49.358;11.256;2024-01-15T11:57:51;-0.30;99.90
8643;DHT22;4359;49.358;11.256;2024-01-15T12:00:18;-0.30;99.90
8643;DHT22;4359;49.358;11.256;2024-01-15T12:02:45;0.00;99.90
8643;DHT22;4359;49.358;11.256;2024-01-15T12:05:13;-0.20;99.90
8643;DHT22;4359;49.358;11.256;2024-01-15T12:07:40;-0.20;99.90
8643;DHT22;4359;49.358;11.256;2024-01-15T12:10:10;-0.30;99.90
8643;DHT22;4359;49.358;11.256;2024-01-15T12:12:58;-0.30;99.90
8643;DHT22;4359;49.358;11.256;2024-01-15T12:15:28;-0.30;99.90
8643;DHT22;4359;49.358;11.256;2024-01-15T12:17:58;-0.40;99.90
8643;DHT22;4359;49.358;11.256;2024-01-15T12:20:25;-0.20;99.90
8643;DHT22;4359;49.358;11.256;2024-01-15T12:22:51;-0.20;99.90
8643;DHT22;4359;49.358;11.256;2024-01-15T12:25:17;-0.10;99.90
8643;DHT22;4359;49.358;11.256;2024-01-15T12:27:43;-0.20;99.90
8643;DHT22;4359;49.358;11.256;2024-01-15T12:30:12;-0.20;99.90
8643;DHT22;4359;49.358;11.256;2024-01-15T12:32:39;-0.30;99.90
8643;DHT22;4359;49.358;11.256;2024-01-15T12:35:05;-0.30;99.90
8643;DHT22;4359;49.358;11.256;2024-01-15T12:37:31;-0.30;99.90
8643;DHT22;4359;49.358;11.256;2024-01-15T12:39:58;-0.40;99.90
8643;DHT22;4359;49.358;11.256;2024-01-15T12:42:24;-0.50;99.90
8643;DHT22;4359;49.358;11.256;2024-01-15T12:44:50;-0.40;99.90
8643;DHT22;4359;49.358;11.256;2024-01-15T12:47:15;-0.40;99.90
8643;DHT22;4359;49.358;11.256;2024-01-15T12:49:47;-0.30;99.90
8643;DHT22;4359;49.358;11.256;2024-01-15T12:52:15;-0.30;99.90
8643;DHT22;4359;49.358;11.256;2024-01-15T12:54:40;-0.20;99.90
8643;DHT22;4359;49.358;11.256;2024-01-15T12:57:06;-0.30;99.90
8643;DHT22;4359;49.358;11.256;2024-01-15T12:59:32;-0.10;99.90
8643;DHT22;4359;49.358;11.256;2024-01-15T13:01:57;-0.10;99.90
8643;DHT22;4359;49.358;11.256;2024-01-15T13:04:23;-0.10;99.90
8643;DHT22;4359;49.358;11.256;2024-01-15T13:06:50;0.00;99.90
8643;DHT22;4359;49.358;11.256;2024-01-15T13:09:17;0.00;99.90
8643;DHT22;4359;49.358;11.256;2024-01-15T13:11:44;-0.10;99.90
8643;DHT22;4359;49.358;11.256;2024-01-15T13:14:10;-0.20;99.90
8643;DHT22;4359;49.358;11.256;2024-01-15T13:16:36;-0.30;99.90
8643;DHT22;4359;49.358;11.256;2024-01-15T13:19:01;-0.20;99.90
8643;DHT22;4359;49.358;11.256;2024-01-15T13:21:29;-0.40;99.90
8643;DHT22;4359;49.358;11.256;2024-01-15T13:23:55;-0.50;99.90
8643;DHT22;4359;49.358;11.256;2024-01-15T13:26:21;-0.40;99.90
8643;DHT22;4359;49.358;11.256;2024-01-15T13:28:47;-0.40;99.90
8643;DHT22;4359;49.358;11.256;2024-01-15T13:31:12;-0.40;99.90
8643;DHT22;4359;49.358;11.256;2024-01-15T13:33:38;-0.40;99.90
8643;DHT22;4359;49.358;11.256;2024-01-15T13:36:05;-0.30;99.90
8643;DHT22;4359;49.358;11.256;2024-01-15T13:38:33;-0.30;99.90
8643;DHT22;4359;49.358;11.256;2024-01-15T13:41:02;-0.40;99.90
8643;DHT22;4359;49.358;11.256;2024-01-15T13:43:28;-0.40;99.90
8643;DHT22;4359;49.358;11.256;2024-01-15T13:45:53;-0.40;99.90
8643;DHT22;4359;49.358;11.256;2024-01-15T13:48:20;-0.50;99.90
8643;DHT22;4359;49.358;11.256;2024-01-15T13:50:45;-0.50;99.90
8643;DHT22;4359;49.358;11.256;2024-01-15T13:53:11;-0.50;99.90
8643;DHT22;4359;49.358;11.256;2024-01-15T13:55:37;-0.60;99.90
8643;DHT22;4359;49.358;11.256;2024-01-15T13:58:02;-0.60;99.90
8643;DHT22;4359;49.358;11.256;2024-01-15T14:00:31;-0.60;99.90
8643;DHT22;4359;49.358;11.256;2024-01-15T14:02:57;-0.60;99.90
8643;DHT22;4359;49.358;11.256;2024-01-15T14:05:23;-0.70;99.90
8643;DHT22;4359;49.358;11.256;2024-01-15T14:07:49;-0.70;99.90
8643;DHT22;4359;49.358;11.256;2024-01-15T14:10:14;-0.60;99.90
8643;DHT22;4359;49.358;11.256;2024-01-15T14:12:40;-0.70;99.90
8643;DHT22;4359;49.358;11.256;2024-01-15T14:15:06;-0.60;99.90
8643;DHT22;4359;49.358;11.256;2024-01-15T14:17:31;-0.50;99.90
8643;DHT22;4359;49.358;11.256;2024-01-15T14:19:57;-0.50;99.90
8643;DHT22;4359;49.358;11.256;2024-01-15T14:22:23;-0.50;99.90
8643;DHT22;4359;49.358;11.256;2024-01-15T14:24:48;-0.60;99.90
8643;DHT22;4359;49.358;11.256;2024-01-15T14:27:15;-0.50;99.90
8643;DHT22;4359;49.358;11.256;2024-01-15T14:29:41;-0.50;99.90
8643;DHT22;4359;49.358;11.256;2024-01-15T14:32:06;-0.60;99.90
8643;DHT22;4359;49.358;11.256;2024-01-15T14:34:32;-0.60;99.90
8643;DHT22;4359;49.358;11.256;2024-01-15T14:36:57;-0.70;99.90
8643;DHT22;4359;49.358;11.256;2024-01-15T14:39:23;-0.60;99.90
8643;DHT22;4359;49.358;11.256;2024-01-15T14:41:49;-0.70;99.90
8643;DHT22;4359;49.358;11.256;2024-01-15T14:44:15;-0.70;99.90
8643;DHT22;4359;49.358;11.256;2024-01-15T14:46:40;-0.70;99.90
8643;DHT22;4359;49.358;11.256;2024-01-15T14:49:06;-0.60;99.90
8643;DHT22;4359;49.358;11.256;2024-01-15T14:51:32;-0.60;99.90
8643;DHT22;4359;49.358;11.256;2024-01-15T14:53:57;-0.60;99.90
8643;DHT22;4359;49.358;11.256;2024-01-15T14:56:24;-0.70;99.90
8643;DHT22;4359;49.358;11.256;2024-01-15T14:58:49;-0.70;99.90
8643;DHT22;4359;49.358;11.256;2024-01-15T15:01:15;-0.70;99.90
8643;DHT22;4359;49.358;11.256;2024-01-15T15:03:41;-0.70;99.90
8643;DHT22;4359;49.358;11.256;2024-01-15T15:06:07;-0.80;99.90
8643;DHT22;4359;49.358;11.256;2024-01-15T15:08:33;-0.90;99.90
8643;DHT22;4359;49.358;11.256;2024-01-15T15:11:00;-0.80;99.90
8643;DHT22;4359;49.358;11.256;2024-01-15T15:13:26;-0.80;99.90
8643;DHT22;4359;49.358;11.256;2024-01-15T15:15:52;-0.80;99.90
8643;DHT22;4359;49.358;11.256;2024-01-15T15:18:19;-0.80;99.90
8643;DHT22;4359;49.358;11.256;2024-01-15T15:20:45;-0.80;99.90
8643;DHT22;4359;49.358;11.256;2024-01-15T15:23:11;-0.80;99.90
8643;DHT22;4359;49.358;11.256;2024-01-15T15:25:36;-0.80;99.90
8643;DHT22;4359;49.358;11.256;2024-01-15T15:28:03;-0.90;99.90
8643;DHT22;4359;49.358;11.256;2024-01-15T15:30:33;-0.80;99.90
8643;DHT22;4359;49.358;11.256;2024-01-15T15:32:58;-0.80;99.90
8643;DHT22;4359;49.358;11.256;2024-01-15T15:35:24;-0.90;99.90
8643;DHT22;4359;49.358;11.256;2024-01-15T15:37:50;-0.90;99.90
8643;DHT22;4359;49.358;11.256;2024-01-15T15:40:15;-1.00;99.90
8643;DHT22;4359;49.358;11.256;2024-01-15T15:42:42;-1.00;99.90
8643;DHT22;4359;49.358;11.256;2024-01-15T15:45:08;-1.10;99.90
8643;DHT22;4359;49.358;11.256;2024-01-15T15:47:35;-1.10;99.90
8643;DHT22;4359;49.358;11.256;2024-01-15T15:50:01;-1.00;99.90
8643;DHT22;4359;49.358;11.256;2024-01-15T15:52:26;-1.10;99.90
8643;DHT22;4359;49.358;11.256;2024-01-15T15:54:52;-1.10;99.90
8643;DHT22;4359;49.358;11.256;2024-01-15T15:57:19;-0.90;99.90
8643;DHT22;4359;49.358;11.256;2024-01-15T15:59:45;-1.10;99.90